ADDS METAR Data INFO
IDs: Format: Raw Decoded Include TAF

Data at: 0902 UTC 20 Oct 2017

KEED 200856Z AUTO 26010KT 10SM CLR 24/M02 A2970 RMK AO2 SLP027 T02391017 58005
KEED 200756Z AUTO 24009KT 10SM CLR 26/M02 A2972 RMK AO2 SLP035 T02611022 403560178
KEED 200656Z AUTO 23008KT 10SM CLR 27/M04 A2972 RMK AO2 SLP033 T02721044
KEED 200556Z AUTO 06003KT 10SM CLR 28/01 A2972 RMK AO2 SLP033 T02780011 10356 20272 52005
KEED 200456Z AUTO 27012KT 10SM CLR 29/02 A2971 RMK AO2 SLP033 T02890017
KEED 200356Z AUTO 22013KT 10SM CLR 30/01 A2971 RMK AO2 SLP031 T03000011
KEED 200256Z AUTO 25009KT 10SM CLR 30/00 A2970 RMK AO2 SLP031 T03000000 53006
KEED 200156Z AUTO 25007KT 10SM CLR 32/01 A2970 RMK AO2 SLP030 T03170006
KEED 200056Z AUTO 24010KT 10SM CLR 34/00 A2968 RMK AO2 SLP024 T03390000
KEED 192356Z AUTO 20008G15KT 10SM CLR 36/M03 A2968 RMK AO2 SLP023 6//// T03561033 10356 20256 56018
KEED 192256Z AUTO 12009KT 10SM CLR 36/M06 A2970 RMK AO2 SLP028 T03561056
KEED 192156Z AUTO 09006KT 10SM CLR 35/M06 A2972 RMK AO2 SLP033 T03501061
KEED 192056Z AUTO VRB04KT 10SM CLR 34/M08 A2974 RMK AO2 SLP039 6//// T03391078
KEED 191856Z AUTO VRB03KT 10SM CLR 30/M07 A2982 RMK AO2 SLP068 T03001072 $
KEED 191756Z AUTO VRB03KT 10SM CLR 28/M07 A2984 RMK AO2 SLP076 T02831067 10283 20178 50001 $
KEED 191656Z AUTO 13003KT 10SM CLR 26/M06 A2984 RMK AO2 SLP079 T02561056 $
KEED 191556Z AUTO 15003KT 10SM CLR 24/M06 A2985 RMK AO2 SLP079 T02391061 $
KEED 191456Z AUTO 21005KT 10SM CLR 21/M07 A2983 RMK AO2 SLP077 T02111067 53008 $
KEED 191356Z AUTO 00000KT 10SM CLR 18/M08 A2982 RMK AO2 SLP073 T01831083 $
KEED 191256Z AUTO 29003KT 10SM CLR 18/M08 A2982 RMK AO2 SLP070 T01831083 $
KEED 191156Z AUTO 00000KT 10SM CLR 19/M09 A2981 RMK AO2 SLP067 T01891089 10244 20189 55007 $
KEED 191056Z AUTO 00000KT 10SM CLR 20/M09 A2981 RMK AO2 SLP066 T02001094 $
KEED 190956Z AUTO 26005KT 10SM CLR 20/M10 A2982 RMK AO2 SLP070 T02001100 $
KEED 190856Z AUTO 23003KT 10SM CLR 21/M10 A2983 RMK AO2 SLP074 T02111100 $
KEED 190756Z AUTO 27004KT 10SM CLR 22/M09 A2983 RMK AO2 SLP075 T02171094 403330183 $
KEED 190656Z AUTO 28005KT 10SM CLR 23/M09 A2984 RMK AO2 SLP077 T02331094 $
KEED 190556Z AUTO 25007KT 10SM CLR 24/M09 A2985 RMK AO2 SLP080 T02441094 10328 20239 56005 $
KEED 190456Z AUTO 27003KT 10SM CLR 25/M09 A2985 RMK AO2 SLP081 T02501089 $
KEED 190356Z AUTO 29006KT 10SM CLR 27/M09 A2986 RMK AO2 SLP084 T02671089 $
KEED 190256Z AUTO 33006KT 10SM CLR 28/M09 A2986 RMK AO2 SLP087 T02781094 53000 $
KEED 190156Z AUTO 34006KT 10SM CLR 29/M09 A2986 RMK AO2 SLP087 T02891089 $
KEED 190056Z AUTO 02006KT 10SM CLR 32/M09 A2986 RMK AO2 SLP083 T03171094 $
KEED 182356Z AUTO 05003KT 10SM CLR 32/M09 A2986 RMK AO2 SLP084 T03221094 10333 20278 58017 $
KEED 182256Z AUTO 01003KT 10SM CLR 33/M08 A2989 RMK AO2 SLP093 T03281078 $
KEED 182156Z AUTO 04003KT 10SM CLR 31/M08 A2989 RMK AO2 SLP096 T03111078 $